< Cyclone 196001 1960 Season Cyclone 196003 >
Cyclone 196002 (unnamed)
General InformationTrack Information on Google Maps || ResourceGoogle EarthGE AnimationAtom FeedGeoJSON
Detalied Best Track (Time Zone = UTC)
Year Month Day Hour Lat. Long. Pressure (hPa) Wind (kt) Class Image Chart
1959 12 24 21 -12.1 132.5 992 0 0 -- --
1959 12 25 05 -12.4 134.5 985 0 0 -- --
1959 12 25 08 -12.2 135.7 985 0 0 -- --
1959 12 25 11 -12.7 136.8 988 0 0 -- --
1959 12 25 17 -12.4 137.6 986 0 0 -- --
1959 12 25 20 -13.1 138.8 986 0 0 -- --
1959 12 25 23 -13.8 140.1 986 0 0 -- --
1959 12 26 05 -14.9 141.2 986 0 0 -- --
1959 12 26 07 -15.2 141.5 986 0 0 -- --
1959 12 26 08 -15.5 141.8 986 0 0 -- --
1959 12 26 11 -15.7 142.7 988 0 0 -- --
1959 12 26 14 -15.5 143.2 992 0 0 -- --
1959 12 26 17 -15.4 143.9 992 0 0 -- --
1959 12 26 23 -15.7 144.0 993 0 0 -- --
1959 12 27 11 -16.0 145.0 996 0 0 -- --
1959 12 27 17 -16.0 145.3 997 0 0 -- --
1959 12 27 23 -16.2 145.7 997 0 0 -- --
1959 12 28 05 -16.5 146.0 998 0 0 -- --
1959 12 28 11 -16.7 146.6 997 0 0 -- --
1959 12 28 17 -17.7 147.0 997 0 0 -- --
1959 12 28 23 -18.8 147.5 997 0 0 -- --
1959 12 29 05 -18.6 148.6 995 0 0 -- --
1959 12 29 08 -18.4 149.5 995 0 0 -- --
1959 12 29 11 -18.4 150.0 995 0 0 -- --
1959 12 29 17 -18.6 151.2 994 0 0 -- --
1959 12 29 23 -18.6 152.6 992 0 0 -- --
1959 12 30 05 -18.6 153.9 990 0 0 -- --
1959 12 30 11 -18.5 154.9 990 0 0 -- --
1959 12 30 17 -18.1 156.5 990 0 0 -- --
1959 12 30 23 -17.9 158.0 990 0 0 -- --
1959 12 31 05 -17.8 159.5 990 0 0 -- --
1959 12 31 11 -17.7 161.0 990 0 0 -- --
1959 12 31 17 -17.6 162.6 990 0 0 -- --
1959 12 31 23 -17.4 164.0 990 0 0 -- --
< Cyclone 196001 1960 Season Cyclone 196003 >

Help